createdAt,value
2019-04-12T00:02:11.496Z,14.10
2019-04-12T00:04:38.409Z,15.53
2019-04-12T00:07:05.022Z,16.17
2019-04-12T00:09:31.690Z,16.93
2019-04-12T00:11:58.459Z,17.23
2019-04-12T00:14:25.472Z,16.93
2019-04-12T00:16:52.034Z,16.53
2019-04-12T00:19:18.814Z,17.73
2019-04-12T00:21:46.410Z,16.20
2019-04-12T00:24:14.091Z,17.53
2019-04-12T00:26:42.106Z,16.80
2019-04-12T00:29:08.758Z,16.83
2019-04-12T00:31:35.704Z,18.50
2019-04-12T00:34:02.543Z,17.20
2019-04-12T00:36:29.164Z,16.40
2019-04-12T00:38:58.404Z,16.73
2019-04-12T00:41:24.494Z,19.03
2019-04-12T00:43:51.386Z,17.67
2019-04-12T00:46:18.091Z,17.13
2019-04-12T00:48:44.877Z,17.57
2019-04-12T00:51:12.158Z,20.90
2019-04-12T00:53:39.411Z,20.43
2019-04-12T00:56:06.057Z,17.67
2019-04-12T00:58:32.679Z,16.23
2019-04-12T01:00:59.396Z,19.23
2019-04-12T01:03:25.997Z,17.57
2019-04-12T01:05:52.619Z,20.13
2019-04-12T01:08:21.109Z,17.40
2019-04-12T01:10:47.829Z,17.10
2019-04-12T01:13:14.725Z,19.20
2019-04-12T01:15:41.362Z,18.37
2019-04-12T01:18:08.231Z,19.27
2019-04-12T01:20:36.481Z,20.40
2019-04-12T01:23:03.276Z,22.63
2019-04-12T01:25:29.880Z,22.13
2019-04-12T01:27:56.565Z,21.67
2019-04-12T01:30:24.383Z,18.20
2019-04-12T01:32:51.125Z,20.50
2019-04-12T01:35:19.061Z,18.23
2019-04-12T01:37:45.667Z,19.90
2019-04-12T01:40:12.249Z,21.00
2019-04-12T01:42:38.978Z,21.70
2019-04-12T01:47:51.147Z,22.67
2019-04-12T01:50:17.742Z,24.07
2019-04-12T01:52:44.420Z,21.77
2019-04-12T01:55:11.688Z,23.20
2019-04-12T01:57:38.621Z,22.37
2019-04-12T02:00:05.821Z,20.10
2019-04-12T02:02:32.448Z,22.70
2019-04-12T02:04:59.125Z,20.30
2019-04-12T02:07:25.719Z,19.40
2019-04-12T02:09:52.791Z,24.47
2019-04-12T02:12:19.728Z,22.20
2019-04-12T02:14:46.601Z,25.60
2019-04-12T02:17:14.946Z,17.53
2019-04-12T02:19:41.527Z,17.53
2019-04-12T02:22:08.147Z,17.53
2019-04-12T02:24:35.049Z,16.93
2019-04-12T02:27:01.709Z,15.43
2019-04-12T02:29:28.575Z,16.73
2019-04-12T02:31:55.360Z,19.57
2019-04-12T02:34:22.324Z,17.70
2019-04-12T02:36:48.953Z,18.50
2019-04-12T02:39:16.122Z,21.70
2019-04-12T02:41:42.803Z,24.33
2019-04-12T02:44:09.485Z,22.27
2019-04-12T02:46:36.094Z,24.13
2019-04-12T02:49:02.992Z,23.30
2019-04-12T02:51:29.591Z,22.20
2019-04-12T02:53:57.281Z,22.75
2019-04-12T02:56:23.945Z,25.73
2019-04-12T02:58:50.555Z,23.83
2019-04-12T03:01:17.438Z,22.40
2019-04-12T03:03:44.165Z,20.43
2019-04-12T03:06:11.370Z,22.65
2019-04-12T03:08:37.965Z,24.77
2019-04-12T03:11:05.076Z,23.40
2019-04-12T03:13:31.676Z,23.00
2019-04-12T03:15:58.543Z,21.70
2019-04-12T03:18:25.154Z,23.30
2019-04-12T03:20:51.817Z,23.17
2019-04-12T03:23:22.409Z,21.63
2019-04-12T03:25:53.308Z,23.32
2019-04-12T03:28:17.698Z,23.47
2019-04-12T03:30:44.692Z,24.12
2019-04-12T03:33:11.255Z,24.53
2019-04-12T03:35:37.939Z,24.73
2019-04-12T03:38:04.567Z,24.60
2019-04-12T03:40:31.195Z,23.37
2019-04-12T03:42:58.089Z,25.47
2019-04-12T03:45:25.546Z,25.50
2019-04-12T03:47:52.142Z,24.33
2019-04-12T03:50:18.729Z,26.73
2019-04-12T03:52:45.330Z,22.90
2019-04-12T03:55:12.214Z,24.70
2019-04-12T03:57:38.857Z,20.07
2019-04-12T04:00:07.860Z,20.83
2019-04-12T04:02:34.738Z,23.40
2019-04-12T04:05:01.665Z,24.03
2019-04-12T04:07:28.861Z,23.20
2019-04-12T04:09:55.447Z,27.73
2019-04-12T04:12:22.177Z,23.90
2019-04-12T04:14:48.909Z,26.07
2019-04-12T04:17:15.491Z,23.57
2019-04-12T04:19:42.359Z,23.80
2019-04-12T04:22:09.043Z,23.70
2019-04-12T04:24:35.817Z,20.33
2019-04-12T04:27:02.632Z,23.30
2019-04-12T04:29:29.520Z,21.60
2019-04-12T04:31:56.507Z,23.43
2019-04-12T04:34:23.101Z,21.70
2019-04-12T04:36:49.877Z,22.17
2019-04-12T04:39:16.746Z,21.57
2019-04-12T04:41:43.340Z,20.73
2019-04-12T04:44:10.292Z,25.08
2019-04-12T04:49:20.873Z,19.53
2019-04-12T04:51:48.010Z,21.80
2019-04-12T04:54:14.886Z,21.97
2019-04-12T04:56:41.624Z,21.43
2019-04-12T04:59:08.248Z,19.53
2019-04-12T05:01:35.106Z,21.65
2019-04-12T05:04:01.683Z,21.50
2019-04-12T05:06:29.602Z,23.00
2019-04-12T05:08:56.175Z,20.27
2019-04-12T05:11:22.765Z,20.60
2019-04-12T05:13:49.395Z,18.77
2019-04-12T05:16:15.951Z,21.13
2019-04-12T05:18:42.876Z,22.17
2019-04-12T05:21:09.491Z,20.53
2019-04-12T05:23:36.070Z,21.10
2019-04-12T05:26:02.663Z,21.37
2019-04-12T05:28:29.500Z,24.47
2019-04-12T05:30:56.411Z,22.90
2019-04-12T05:33:22.995Z,21.63
2019-04-12T05:35:49.746Z,25.33
2019-04-12T05:38:16.624Z,23.30
2019-04-12T05:40:43.308Z,25.10
2019-04-12T05:43:10.152Z,23.23
2019-04-12T05:45:36.757Z,23.57
2019-04-12T05:48:03.353Z,21.30
2019-04-12T05:50:30.948Z,21.62
2019-04-12T05:52:58.558Z,22.37
2019-04-12T05:55:26.132Z,22.55
2019-04-12T05:57:53.299Z,21.40
2019-04-12T06:00:19.936Z,20.67
2019-04-12T06:02:46.757Z,19.37
2019-04-12T06:05:13.494Z,19.73
2019-04-12T06:07:40.462Z,24.97
2019-04-12T06:10:07.067Z,18.63
2019-04-12T06:12:33.701Z,21.27
2019-04-12T06:15:00.603Z,21.83
2019-04-12T06:17:27.454Z,17.83
2019-04-12T06:19:54.338Z,18.40
2019-04-12T06:22:22.418Z,17.57
2019-04-12T06:24:51.032Z,20.47
2019-04-12T06:27:20.664Z,19.32
2019-04-12T06:32:36.614Z,17.50
2019-04-12T06:37:52.475Z,20.43
2019-04-12T06:40:20.748Z,18.93
2019-04-12T06:42:51.915Z,17.33
2019-04-12T06:45:19.712Z,19.23
2019-04-12T06:47:47.382Z,19.37
2019-04-12T06:50:18.449Z,21.57
2019-04-12T06:52:47.759Z,20.30
2019-04-12T06:58:05.664Z,20.82
2019-04-12T07:00:34.675Z,18.57
2019-04-12T07:03:10.408Z,19.95
2019-04-12T07:05:37.513Z,21.17
2019-04-12T07:08:08.687Z,21.67
2019-04-12T07:10:35.425Z,19.90
2019-04-12T07:13:02.312Z,23.22
2019-04-12T07:15:29.031Z,21.23
2019-04-12T07:17:56.520Z,22.87
2019-04-12T07:20:23.630Z,21.53
2019-04-12T07:22:50.220Z,21.03
2019-04-12T07:25:17.202Z,24.27
2019-04-12T07:27:44.038Z,20.67
2019-04-12T07:30:11.206Z,20.17
2019-04-12T07:32:38.119Z,19.23
2019-04-12T07:35:04.725Z,20.23
2019-04-12T07:37:31.528Z,20.87
2019-04-12T07:39:58.106Z,17.73
2019-04-12T07:42:24.748Z,19.97
2019-04-12T07:47:27.387Z,19.10
2019-04-12T07:49:53.965Z,19.17
2019-04-12T07:52:20.757Z,19.37
2019-04-12T07:54:47.637Z,19.48
2019-04-12T07:57:14.253Z,20.33
2019-04-12T07:59:42.290Z,19.20
2019-04-12T08:02:12.927Z,19.37
2019-04-12T08:04:39.996Z,23.17
2019-04-12T08:07:06.846Z,21.17
2019-04-12T08:09:33.426Z,16.77
2019-04-12T08:12:00.364Z,21.67
2019-04-12T08:14:27.040Z,20.07
2019-04-12T08:16:53.630Z,17.40
2019-04-12T08:19:20.617Z,21.12
2019-04-12T08:21:47.201Z,20.67
2019-04-12T08:24:14.070Z,20.17
2019-04-12T08:26:40.831Z,19.27
2019-04-12T08:29:07.683Z,19.37
2019-04-12T08:31:34.286Z,18.47
2019-04-12T08:34:02.154Z,18.80
2019-04-12T08:36:28.807Z,19.77
2019-04-12T08:38:55.441Z,21.33
2019-04-12T08:41:22.318Z,17.27
2019-04-12T08:43:51.285Z,18.17
2019-04-12T08:46:19.091Z,20.43
2019-04-12T08:48:45.667Z,17.42
2019-04-12T08:51:22.171Z,20.47
2019-04-12T08:53:40.642Z,23.13
2019-04-12T08:56:07.386Z,24.33
2019-04-12T08:58:34.090Z,19.03
2019-04-12T09:01:01.027Z,17.27
2019-04-12T09:03:27.722Z,16.57
2019-04-12T09:05:54.676Z,15.97
2019-04-12T09:08:21.585Z,18.50
2019-04-12T09:10:48.218Z,17.30
2019-04-12T09:13:15.283Z,18.50
2019-04-12T09:15:42.027Z,18.67
2019-04-12T09:18:08.901Z,21.57
2019-04-12T09:20:35.604Z,16.80
2019-04-12T09:23:02.531Z,20.50
2019-04-12T09:25:29.135Z,18.23
2019-04-12T09:27:55.830Z,18.97
2019-04-12T09:30:22.781Z,19.57
2019-04-12T09:32:49.499Z,17.53
2019-04-12T09:35:16.155Z,20.07
2019-04-12T09:37:43.091Z,16.10
2019-04-12T09:40:10.687Z,17.60
2019-04-12T09:42:37.290Z,19.57
2019-04-12T09:47:50.490Z,15.65
2019-04-12T09:50:17.164Z,15.47
2019-04-12T09:52:44.038Z,15.55
2019-04-12T09:55:10.940Z,18.00
2019-04-12T09:57:37.564Z,13.73
2019-04-12T10:00:04.128Z,19.03
2019-04-12T10:02:30.755Z,16.37
2019-04-12T10:04:57.598Z,16.47
2019-04-12T10:07:24.265Z,14.37
2019-04-12T10:09:50.877Z,14.97
2019-04-12T10:12:19.636Z,16.10
2019-04-12T10:14:45.765Z,16.90
2019-04-12T10:17:13.002Z,15.83
2019-04-12T10:19:39.864Z,16.90
2019-04-12T10:22:08.850Z,15.53
2019-04-12T10:24:35.182Z,13.70
2019-04-12T10:27:01.804Z,14.33
2019-04-12T10:29:28.404Z,16.67
2019-04-12T10:31:56.343Z,14.40
2019-04-12T10:34:25.366Z,16.90
2019-04-12T10:36:51.810Z,14.10
2019-04-12T10:39:18.372Z,14.77
2019-04-12T10:41:45.209Z,14.10
2019-04-12T10:44:12.149Z,14.10
2019-04-12T10:46:39.437Z,15.20
2019-04-12T10:49:06.012Z,15.05
2019-04-12T10:51:32.614Z,15.27
2019-04-12T10:53:59.371Z,15.37
2019-04-12T10:56:25.964Z,13.80
2019-04-12T10:59:02.761Z,13.97
2019-04-12T11:01:23.271Z,16.32
2019-04-12T11:03:49.991Z,14.20
2019-04-12T11:06:29.488Z,13.07
2019-04-12T11:08:45.143Z,13.30
2019-04-12T11:11:11.727Z,11.83
2019-04-12T11:13:38.611Z,11.70
2019-04-12T11:16:06.106Z,12.30
2019-04-12T11:18:33.000Z,13.78
2019-04-12T11:20:59.602Z,14.50
2019-04-12T11:23:26.701Z,14.45
2019-04-12T11:25:53.300Z,11.90
2019-04-12T11:28:19.928Z,12.57
2019-04-12T11:30:46.548Z,10.85
2019-04-12T11:33:13.151Z,13.23
2019-04-12T11:35:39.803Z,13.43
2019-04-12T11:38:06.712Z,11.40
2019-04-12T11:40:33.299Z,10.40
2019-04-12T11:43:10.861Z,11.70
2019-04-12T11:45:40.785Z,12.07
2019-04-12T11:48:07.442Z,10.07
2019-04-12T11:50:34.021Z,11.13
2019-04-12T11:53:00.651Z,11.33
2019-04-12T11:55:27.243Z,10.65
2019-04-12T11:57:54.038Z,11.70
2019-04-12T12:00:20.671Z,12.20
2019-04-12T12:02:47.292Z,10.80
2019-04-12T12:05:14.011Z,10.90
2019-04-12T12:07:49.886Z,10.18
2019-04-12T12:10:09.906Z,9.93
2019-04-12T12:12:36.507Z,10.37
2019-04-12T12:15:03.174Z,11.97
2019-04-12T12:17:29.858Z,10.50
2019-04-12T12:19:56.939Z,10.72
2019-04-12T12:22:23.549Z,9.87
2019-04-12T12:24:50.427Z,12.07
2019-04-12T12:27:17.193Z,11.43
2019-04-12T12:29:47.339Z,11.03
2019-04-12T12:32:14.285Z,13.23
2019-04-12T12:34:41.047Z,9.23
2019-04-12T12:37:07.981Z,8.60
2019-04-12T12:39:35.609Z,10.57
2019-04-12T12:42:02.510Z,8.23
2019-04-12T12:44:29.238Z,10.40
2019-04-12T12:46:55.979Z,9.73
2019-04-12T12:49:22.639Z,9.60
2019-04-12T12:51:49.395Z,10.20
2019-04-12T12:54:16.016Z,9.23
2019-04-12T12:56:43.670Z,8.80
2019-04-12T12:59:11.219Z,9.40
2019-04-12T13:01:37.829Z,10.13
2019-04-12T13:04:05.435Z,9.23
2019-04-12T13:06:34.342Z,9.03
2019-04-12T13:09:01.998Z,11.53
2019-04-12T13:11:29.575Z,8.23
2019-04-12T13:13:57.046Z,8.33
2019-04-12T13:16:24.651Z,8.73
2019-04-12T13:18:51.233Z,9.60
2019-04-12T13:21:18.587Z,8.53
2019-04-12T13:23:46.233Z,10.70
2019-04-12T13:26:12.813Z,8.15
2019-04-12T13:28:39.874Z,9.47
2019-04-12T13:31:06.841Z,8.53
2019-04-12T13:33:33.425Z,8.43
2019-04-12T13:36:00.116Z,9.70
2019-04-12T13:38:27.329Z,9.13
2019-04-12T13:40:54.926Z,9.07
2019-04-12T13:43:21.954Z,9.83
2019-04-12T13:48:36.561Z,8.53
2019-04-12T13:51:09.263Z,9.43
2019-04-12T13:53:47.384Z,13.87
2019-04-12T13:56:10.306Z,11.63
2019-04-12T13:58:38.762Z,9.83
2019-04-12T14:03:37.935Z,9.60
2019-04-12T14:06:04.513Z,9.30
2019-04-12T14:08:31.203Z,10.90
2019-04-12T14:10:58.227Z,10.50
2019-04-12T14:13:24.820Z,12.73
2019-04-12T14:15:52.050Z,10.53
2019-04-12T14:18:18.653Z,10.63
2019-04-12T14:20:45.617Z,12.03
2019-04-12T14:23:12.230Z,9.50
2019-04-12T14:25:38.842Z,12.60
2019-04-12T14:28:06.175Z,9.73
2019-04-12T14:30:33.805Z,8.83
2019-04-12T14:33:00.859Z,9.23
2019-04-12T14:35:28.045Z,8.13
2019-04-12T14:37:54.717Z,8.37
2019-04-12T14:40:22.534Z,9.03
2019-04-12T14:42:49.262Z,9.30
2019-04-12T14:45:15.926Z,8.60
2019-04-12T14:47:44.667Z,7.80
2019-04-12T14:50:11.305Z,8.60
2019-04-12T14:52:38.161Z,9.60
2019-04-12T14:55:04.763Z,8.57
2019-04-12T14:57:31.412Z,8.27
2019-04-12T14:59:58.311Z,8.80
2019-04-12T15:02:24.917Z,9.30
2019-04-12T15:04:51.816Z,10.20
2019-04-12T15:07:18.416Z,10.70
2019-04-12T15:09:45.106Z,8.77
2019-04-12T15:12:11.694Z,8.43
2019-04-12T15:14:38.278Z,11.00
2019-04-12T15:17:05.215Z,8.77
2019-04-12T15:19:31.823Z,8.63
2019-04-12T15:21:59.294Z,9.75
2019-04-12T15:24:26.106Z,8.03
2019-04-12T15:26:52.704Z,7.73
2019-04-12T15:29:19.288Z,9.23
2019-04-12T15:31:45.929Z,10.83
2019-04-12T15:34:14.141Z,9.63
2019-04-12T15:36:40.718Z,8.80
2019-04-12T15:39:07.323Z,9.37
2019-04-12T15:41:33.944Z,9.13
2019-04-12T15:46:46.435Z,9.20
2019-04-12T15:49:14.036Z,7.53
2019-04-12T15:51:41.209Z,9.38
2019-04-12T15:54:08.088Z,9.13
2019-04-12T15:56:35.729Z,9.47
2019-04-12T15:59:09.276Z,8.33
2019-04-12T16:01:35.833Z,12.73
2019-04-12T16:04:03.459Z,12.13
2019-04-12T16:06:31.085Z,9.47
2019-04-12T16:08:57.983Z,9.78
2019-04-12T16:11:27.094Z,9.93
2019-04-12T16:13:54.787Z,10.00
2019-04-12T16:16:23.793Z,11.83
2019-04-12T16:18:51.393Z,9.13
2019-04-12T16:21:17.975Z,10.27
2019-04-12T16:23:44.783Z,9.33
2019-04-12T16:26:12.385Z,11.23
2019-04-12T16:28:43.276Z,9.77
2019-04-12T16:31:23.002Z,9.93
2019-04-12T16:33:40.016Z,8.27
2019-04-12T16:36:07.751Z,11.43
2019-04-12T16:38:37.181Z,9.00
2019-04-12T16:41:03.772Z,9.63
2019-04-12T16:43:30.637Z,11.83
2019-04-12T16:45:57.438Z,9.47
2019-04-12T16:48:24.019Z,10.07
2019-04-12T16:50:50.934Z,14.03
2019-04-12T16:53:17.577Z,10.37
2019-04-12T16:55:44.349Z,10.47
2019-04-12T16:58:10.933Z,9.70
2019-04-12T17:00:39.097Z,10.97
2019-04-12T17:03:06.761Z,11.33
2019-04-12T17:05:36.164Z,10.63
2019-04-12T17:08:03.164Z,10.25
2019-04-12T17:10:30.761Z,11.23
2019-04-12T17:12:58.376Z,10.17
2019-04-12T17:15:25.766Z,11.27
2019-04-12T17:17:52.693Z,10.40
2019-04-12T17:20:19.879Z,10.32
2019-04-12T17:22:46.628Z,10.27
2019-04-12T17:25:13.685Z,10.90
2019-04-12T17:27:41.281Z,11.00
2019-04-12T17:30:08.652Z,10.27
2019-04-12T17:32:36.852Z,12.43
2019-04-12T17:35:04.449Z,11.23
2019-04-12T17:37:33.043Z,10.00
2019-04-12T17:39:59.935Z,12.13
2019-04-12T17:42:27.530Z,11.30
2019-04-12T17:44:55.504Z,10.93
2019-04-12T17:47:22.387Z,11.03
2019-04-12T17:49:49.282Z,14.17
2019-04-12T17:52:16.000Z,12.67
2019-04-12T17:54:42.601Z,13.23
2019-04-12T17:57:09.177Z,11.70
2019-04-12T17:59:36.129Z,11.87
2019-04-12T18:02:04.133Z,11.60
2019-04-12T18:04:32.399Z,12.13
2019-04-12T18:06:59.335Z,11.37
2019-04-12T18:09:26.202Z,11.73
2019-04-12T18:11:53.803Z,12.80
2019-04-12T18:14:21.149Z,12.10
2019-04-12T18:16:51.198Z,12.43
2019-04-12T18:19:17.511Z,11.37
2019-04-12T18:21:44.894Z,11.47
2019-04-12T18:24:11.492Z,11.50
2019-04-12T18:26:38.366Z,13.13
2019-04-12T18:29:04.999Z,12.00
2019-04-12T18:31:31.660Z,12.23
2019-04-12T18:33:58.262Z,12.37
2019-04-12T18:41:30.765Z,11.27
2019-04-12T18:44:01.053Z,10.70
2019-04-12T18:46:28.427Z,11.63
2019-04-12T18:48:55.086Z,11.40
2019-04-12T18:51:21.675Z,12.37
2019-04-12T18:53:48.305Z,12.47
2019-04-12T18:56:14.952Z,13.73
2019-04-12T18:58:41.535Z,14.13
2019-04-12T19:01:08.409Z,12.78
2019-04-12T19:03:34.988Z,13.10
2019-04-12T19:06:13.901Z,11.30
2019-04-12T19:08:30.239Z,13.87
2019-04-12T19:10:56.843Z,15.03
2019-04-12T19:13:23.467Z,14.95
2019-04-12T19:15:50.077Z,13.20
2019-04-12T19:18:16.701Z,11.83
2019-04-12T19:20:43.283Z,13.27
2019-04-12T19:23:09.884Z,11.53
2019-04-12T19:25:36.789Z,12.70
2019-04-12T19:30:49.427Z,12.37
2019-04-12T19:33:16.290Z,14.13
2019-04-12T19:35:43.096Z,13.87
2019-04-12T19:38:09.729Z,13.37
2019-04-12T19:40:36.316Z,15.03
2019-04-12T19:43:02.916Z,13.70
2019-04-12T19:45:38.519Z,12.83
2019-04-12T19:48:04.577Z,12.43
2019-04-12T19:50:35.561Z,12.53
2019-04-12T19:53:07.272Z,12.35
2019-04-12T19:55:33.822Z,10.80
2019-04-12T20:00:47.275Z,12.87
2019-04-12T20:03:25.578Z,12.97
2019-04-12T20:05:56.396Z,11.33
2019-04-12T20:08:29.650Z,14.07
2019-04-12T20:10:56.846Z,11.50
2019-04-12T20:13:24.590Z,14.15
2019-04-12T20:15:56.345Z,12.03
2019-04-12T20:18:25.327Z,12.80
2019-04-12T20:20:52.154Z,14.77
2019-04-12T20:23:22.862Z,13.57
2019-04-12T20:25:51.499Z,12.55
2019-04-12T20:28:22.936Z,13.40
2019-04-12T20:30:52.034Z,14.53
2019-04-12T20:33:20.905Z,11.90
2019-04-12T20:36:05.050Z,13.63
2019-04-12T20:38:34.436Z,12.73
2019-04-12T20:41:03.337Z,13.83
2019-04-12T20:43:30.961Z,12.97
2019-04-12T20:46:02.259Z,13.10
2019-04-12T20:48:31.255Z,12.00
2019-04-12T20:51:00.846Z,12.87
2019-04-12T20:53:27.852Z,13.75
2019-04-12T20:55:54.694Z,12.50
2019-04-12T20:58:25.695Z,13.27
2019-04-12T21:03:41.915Z,13.30
2019-04-12T21:06:10.866Z,13.67
2019-04-12T21:08:40.755Z,13.60
2019-04-12T21:11:09.783Z,14.13
2019-04-12T21:13:37.418Z,12.20
2019-04-12T21:16:05.031Z,12.83
2019-04-12T21:21:18.487Z,11.60
2019-04-12T21:23:45.541Z,13.40
2019-04-12T21:26:16.388Z,13.90
2019-04-12T21:29:02.894Z,11.53
2019-04-12T21:31:30.742Z,15.50
2019-04-12T21:33:58.229Z,12.43
2019-04-12T21:36:27.408Z,11.83
2019-04-12T21:38:57.280Z,11.40
2019-04-12T21:41:24.320Z,13.27
2019-04-12T21:46:38.744Z,13.60
2019-04-12T21:49:08.811Z,12.50
2019-04-12T21:51:41.278Z,12.50
2019-04-12T21:54:11.185Z,11.00
2019-04-12T21:56:42.658Z,12.33
2019-04-12T21:59:10.240Z,13.97
2019-04-12T22:01:38.139Z,13.62
2019-04-12T22:04:10.386Z,13.63
2019-04-12T22:06:37.424Z,13.00
2019-04-12T22:09:08.837Z,12.53
2019-04-12T22:11:41.044Z,15.90
2019-04-12T22:14:14.474Z,15.00
2019-04-12T22:16:38.574Z,13.63
2019-04-12T22:19:08.286Z,12.77
2019-04-12T22:21:40.274Z,15.57
2019-04-12T22:24:09.100Z,13.07
2019-04-12T22:26:42.240Z,13.83
2019-04-12T22:29:11.404Z,14.68
2019-04-12T22:31:38.585Z,13.93
2019-04-12T22:34:14.286Z,13.37
2019-04-12T22:36:42.995Z,12.43
2019-04-12T22:39:23.453Z,12.70
2019-04-12T22:41:42.127Z,12.13
2019-04-12T22:44:09.732Z,12.90
2019-04-12T22:46:44.285Z,13.90
2019-04-12T22:49:13.480Z,12.83
2019-04-12T22:51:41.089Z,13.90
2019-04-12T22:54:10.465Z,12.47
2019-04-12T22:56:43.716Z,11.73
2019-04-12T23:01:40.498Z,14.23
2019-04-12T23:06:54.693Z,14.70
2019-04-12T23:09:23.604Z,13.33
2019-04-12T23:11:50.429Z,12.97
2019-04-12T23:14:17.398Z,12.17
2019-04-12T23:16:48.248Z,11.63
2019-04-12T23:19:17.714Z,13.57
2019-04-12T23:21:47.801Z,13.53
2019-04-12T23:24:19.221Z,13.20
2019-04-12T23:26:52.444Z,12.57
2019-04-12T23:34:32.751Z,13.50
2019-04-12T23:39:29.986Z,14.35
2019-04-12T23:42:00.999Z,12.60
2019-04-12T23:47:00.700Z,14.00
2019-04-12T23:49:32.146Z,13.83
2019-04-12T23:52:01.902Z,12.10
2019-04-12T23:56:59.075Z,11.38
2019-04-12T23:59:30.189Z,11.20
